Time;durP1;ratioP1;P1;durP2;ratioP2;P2;SDS_P1;SDS_P2;PMS_P1;PMS_P2;Temp;Humidity;BMP_temperature;BMP_pressure;BME280_temperature;BME280_humidity;BME280_pressure;Samples;Min_cycle;Max_cycle;Signal;HPM_P1;HPM_P2
2023/07/30 00:02:21;;;;;;;4.30;3.28;;;18.80;99.90;;;;;;5054285;28;20289;-32
2023/07/30 00:04:47;;;;;;;4.90;3.20;;;18.80;99.90;;;;;;5051581;28;20189;-33
2023/07/30 00:07:13;;;;;;;4.63;3.10;;;18.80;99.90;;;;;;5051549;28;20174;-33
2023/07/30 00:09:39;;;;;;;3.40;3.10;;;18.80;99.90;;;;;;5051760;28;20217;-33
2023/07/30 00:12:07;;;;;;;3.60;3.22;;;18.80;99.90;;;;;;5051391;28;20181;-32
2023/07/30 00:14:33;;;;;;;4.78;3.33;;;18.70;99.90;;;;;;5051536;28;20211;-33
2023/07/30 00:16:58;;;;;;;3.50;3.20;;;18.70;99.90;;;;;;5054982;28;20181;-33
2023/07/30 00:19:24;;;;;;;4.30;3.53;;;18.70;99.90;;;;;;5054759;28;20197;-33
2023/07/30 00:21:50;;;;;;;4.30;3.00;;;18.70;99.90;;;;;;5043525;28;20235;-33
2023/07/30 00:24:16;;;;;;;3.47;3.17;;;18.70;99.90;;;;;;5042626;28;20190;-33
2023/07/30 00:26:42;;;;;;;3.63;3.25;;;18.70;99.90;;;;;;5051608;28;20178;-33
2023/07/30 00:29:07;;;;;;;5.65;3.10;;;18.70;99.90;;;;;;5056510;28;20246;-32
2023/07/30 00:31:33;;;;;;;4.47;3.28;;;18.70;99.90;;;;;;5054300;28;20205;-33
2023/07/30 00:33:59;;;;;;;3.17;2.88;;;18.70;99.90;;;;;;5054389;28;20185;-33
2023/07/30 00:36:25;;;;;;;3.72;3.30;;;18.60;99.90;;;;;;5054351;28;20189;-33
2023/07/30 00:38:51;;;;;;;3.63;3.20;;;18.60;99.90;;;;;;5052468;28;20216;-33
2023/07/30 00:41:17;;;;;;;3.30;3.00;;;18.60;99.90;;;;;;5053949;28;20182;-32
2023/07/30 00:43:43;;;;;;;2.95;2.65;;;18.50;99.90;;;;;;5070092;28;20216;-32
2023/07/30 00:46:09;;;;;;;3.63;2.88;;;18.50;99.90;;;;;;5065738;28;20182;-33
2023/07/30 00:48:36;;;;;;;4.10;3.20;;;18.50;99.90;;;;;;5051090;28;20223;-32
2023/07/30 00:51:04;;;;;;;3.40;3.10;;;18.40;99.90;;;;;;5064375;28;20192;-33
2023/07/30 00:53:31;;;;;;;3.50;3.20;;;18.40;99.90;;;;;;5055964;28;20188;-32
2023/07/30 00:55:57;;;;;;;3.40;3.10;;;18.40;99.90;;;;;;5057300;28;20181;-32
2023/07/30 00:58:23;;;;;;;4.50;3.30;;;18.40;99.90;;;;;;5066117;28;20181;-32
2023/07/30 01:00:54;;;;;;;5.05;3.20;;;18.40;99.90;;;;;;5054307;28;20268;-32
2023/07/30 01:03:21;;;;;;;4.15;3.40;;;18.40;99.90;;;;;;5053942;28;20201;-33
2023/07/30 01:05:47;;;;;;;3.67;3.38;;;18.40;99.90;;;;;;5045772;28;20269;-32
2023/07/30 01:08:13;;;;;;;4.85;3.28;;;18.40;99.90;;;;;;5050674;28;20182;-32
2023/07/30 01:10:41;;;;;;;3.55;2.83;;;18.40;99.90;;;;;;5050915;28;20205;-33
2023/07/30 01:13:09;;;;;;;3.33;3.03;;;18.40;99.90;;;;;;5050427;28;20177;-33
2023/07/30 01:15:36;;;;;;;3.83;3.42;;;18.40;99.90;;;;;;5050471;28;20230;-33
2023/07/30 01:18:01;;;;;;;3.42;3.13;;;18.40;99.90;;;;;;5069948;28;20211;-33
2023/07/30 01:20:31;;;;;;;3.65;3.28;;;18.40;99.90;;;;;;5053438;28;20208;-33
2023/07/30 01:22:59;;;;;;;4.45;3.08;;;18.30;99.90;;;;;;5070499;28;20209;-33
2023/07/30 01:25:28;;;;;;;5.43;3.30;;;18.20;99.90;;;;;;5060209;28;20261;-32
2023/07/30 01:27:58;;;;;;;3.47;3.17;;;18.10;99.90;;;;;;5050170;28;20178;-32
2023/07/30 01:30:32;;;;;;;5.47;3.42;;;18.10;99.90;;;;;;5048774;28;20227;-32
2023/07/30 01:32:58;;;;;;;3.83;3.22;;;18.10;99.90;;;;;;5069389;28;20265;-33
2023/07/30 01:35:26;;;;;;;3.65;3.25;;;18.10;99.90;;;;;;5070611;28;20185;-32
2023/07/30 01:37:53;;;;;;;3.80;3.40;;;18.00;99.90;;;;;;5070706;28;20181;-32
2023/07/30 01:40:20;;;;;;;3.70;3.40;;;18.00;99.90;;;;;;5053741;28;20201;-33
2023/07/30 01:42:46;;;;;;;3.45;3.15;;;18.10;99.90;;;;;;5033093;28;20198;-33
2023/07/30 01:45:12;;;;;;;3.65;3.28;;;18.00;99.90;;;;;;5047094;28;20181;-32
2023/07/30 01:47:38;;;;;;;4.35;3.22;;;17.90;99.90;;;;;;5053166;28;20188;-33
2023/07/30 01:50:04;;;;;;;4.72;3.30;;;17.90;99.90;;;;;;5053615;28;20201;-32
2023/07/30 01:52:30;;;;;;;5.18;3.53;;;17.90;99.90;;;;;;5053854;28;20212;-33
2023/07/30 01:54:56;;;;;;;4.68;3.58;;;17.80;99.90;;;;;;5042826;28;20213;-33
2023/07/30 01:57:23;;;;;;;4.93;3.42;;;17.80;99.90;;;;;;5049724;28;20186;-33
2023/07/30 01:59:49;;;;;;;4.97;3.17;;;17.70;99.90;;;;;;5051216;28;20319;-33
2023/07/30 02:02:15;;;;;;;6.18;3.80;;;17.70;99.90;;;;;;5069965;28;20266;-32
2023/07/30 02:04:41;;;;;;;4.25;3.35;;;17.70;99.90;;;;;;5052702;28;20178;-32
2023/07/30 02:07:07;;;;;;;5.28;3.47;;;17.60;99.90;;;;;;5061989;28;20258;-32
2023/07/30 02:09:32;;;;;;;5.07;3.75;;;17.70;99.90;;;;;;5053130;28;20197;-32
2023/07/30 02:12:00;;;;;;;5.28;3.67;;;17.60;99.90;;;;;;5070635;28;20174;-32
2023/07/30 02:14:26;;;;;;;6.13;3.50;;;17.50;99.90;;;;;;5053676;28;20192;-32
2023/07/30 02:16:53;;;;;;;4.03;3.55;;;17.30;99.90;;;;;;5069980;28;20181;-33
2023/07/30 02:19:18;;;;;;;5.43;3.35;;;17.30;99.90;;;;;;5053627;28;20201;-34
2023/07/30 02:21:44;;;;;;;5.22;3.33;;;17.30;99.90;;;;;;5069966;28;20177;-33
2023/07/30 02:24:11;;;;;;;6.38;3.35;;;17.30;99.90;;;;;;5052985;28;20209;-32
2023/07/30 02:26:40;;;;;;;3.85;3.50;;;17.30;99.90;;;;;;5032972;28;20265;-32
2023/07/30 02:29:06;;;;;;;5.03;3.10;;;17.40;99.90;;;;;;5034038;28;20293;-32
2023/07/30 02:31:32;;;;;;;5.47;3.30;;;17.40;99.90;;;;;;5053813;28;20261;-32
2023/07/30 02:33:58;;;;;;;3.60;3.30;;;17.30;99.90;;;;;;5055582;28;20213;-32
2023/07/30 02:36:24;;;;;;;3.25;2.80;;;17.30;99.90;;;;;;5048670;28;20690;-32
2023/07/30 02:38:50;;;;;;;4.93;3.22;;;17.30;99.90;;;;;;5057013;28;20209;-32
2023/07/30 02:41:16;;;;;;;3.45;3.00;;;17.40;99.90;;;;;;5040845;28;20182;-32
2023/07/30 02:43:42;;;;;;;3.78;3.05;;;17.40;99.90;;;;;;5053832;28;20301;-33
2023/07/30 02:46:08;;;;;;;3.75;3.20;;;17.40;99.90;;;;;;5048839;28;20268;-32
2023/07/30 02:48:34;;;;;;;3.13;2.80;;;17.40;99.90;;;;;;5056758;28;20177;-32
2023/07/30 02:51:00;;;;;;;4.20;3.20;;;17.40;99.90;;;;;;5073537;28;20201;-32
2023/07/30 02:53:26;;;;;;;4.65;3.10;;;17.40;99.90;;;;;;5056057;28;20188;-32
2023/07/30 02:55:52;;;;;;;4.85;3.17;;;17.40;99.90;;;;;;5042463;28;20182;-32
2023/07/30 02:58:18;;;;;;;3.17;2.88;;;17.40;99.90;;;;;;5041337;28;20181;-32
2023/07/30 03:00:44;;;;;;;7.35;3.40;;;17.40;99.90;;;;;;5056351;28;20264;-33
2023/07/30 03:03:10;;;;;;;4.60;3.45;;;17.40;99.90;;;;;;5055984;28;20205;-32
2023/07/30 03:05:35;;;;;;;3.08;2.80;;;17.40;99.90;;;;;;5055384;28;20185;-33
2023/07/30 03:08:01;;;;;;;4.82;3.67;;;17.30;99.90;;;;;;5056291;28;20188;-32
2023/07/30 03:10:27;;;;;;;3.55;2.83;;;17.40;99.90;;;;;;5056414;28;20224;-33
2023/07/30 03:12:53;;;;;;;3.70;3.30;;;17.40;99.90;;;;;;5055850;28;20181;-33
2023/07/30 03:15:19;;;;;;;4.65;3.05;;;17.30;99.90;;;;;;5055947;28;20204;-33
2023/07/30 03:17:45;;;;;;;4.57;3.50;;;17.40;99.90;;;;;;5072264;28;20189;-32
2023/07/30 03:20:11;;;;;;;5.00;3.70;;;17.40;99.90;;;;;;5072782;28;20218;-32
2023/07/30 03:22:38;;;;;;;3.40;2.97;;;17.40;99.90;;;;;;5048465;28;20214;-32
2023/07/30 03:25:04;;;;;;;6.18;3.63;;;17.50;99.90;;;;;;5052363;28;20189;-31
2023/07/30 03:27:30;;;;;;;4.57;3.63;;;17.50;99.90;;;;;;5043493;28;20198;-33
2023/07/30 03:29:56;;;;;;;3.63;3.33;;;17.50;99.90;;;;;;5052218;28;20198;-33
2023/07/30 03:32:22;;;;;;;6.55;3.53;;;17.50;99.90;;;;;;5042636;28;20183;-32
2023/07/30 03:34:48;;;;;;;3.10;2.80;;;17.40;99.90;;;;;;5052527;28;20186;-32
2023/07/30 03:37:14;;;;;;;2.85;2.55;;;17.40;99.90;;;;;;5047913;28;20177;-32
2023/07/30 03:39:40;;;;;;;3.45;3.15;;;17.40;99.90;;;;;;5049369;28;20210;-32
2023/07/30 03:42:06;;;;;;;3.47;3.03;;;17.40;99.90;;;;;;5044505;28;20201;-32
2023/07/30 03:44:34;;;;;;;3.80;3.03;;;17.50;99.90;;;;;;5050832;28;20174;-32
2023/07/30 03:47:00;;;;;;;4.43;3.10;;;17.50;99.90;;;;;;5053135;28;20219;-33
2023/07/30 03:49:27;;;;;;;3.85;2.97;;;17.50;99.90;;;;;;5054486;28;20202;-33
2023/07/30 03:51:54;;;;;;;3.55;3.03;;;17.50;99.90;;;;;;5052300;28;20205;-32
2023/07/30 03:54:20;;;;;;;3.33;3.03;;;17.50;99.90;;;;;;5051459;28;20192;-33
2023/07/30 03:56:46;;;;;;;3.50;2.42;;;17.60;99.90;;;;;;5059851;28;20272;-33
2023/07/30 03:59:12;;;;;;;3.03;2.65;;;17.60;99.90;;;;;;5046893;28;20382;-32
2023/07/30 04:01:37;;;;;;;3.50;2.80;;;17.60;99.90;;;;;;5054835;28;20185;-32
2023/07/30 04:04:03;;;;;;;3.22;2.90;;;17.60;99.90;;;;;;5054390;28;20233;-33
2023/07/30 04:06:29;;;;;;;3.90;2.90;;;17.60;99.90;;;;;;5055024;28;20189;-33
2023/07/30 04:08:55;;;;;;;5.65;3.25;;;17.60;99.90;;;;;;5054990;28;20290;-33
2023/07/30 04:11:21;;;;;;;6.57;2.90;;;17.70;99.90;;;;;;5054836;28;20231;-33
2023/07/30 04:13:47;;;;;;;4.13;2.90;;;17.70;99.90;;;;;;5054816;28;20272;-32
2023/07/30 04:16:13;;;;;;;3.42;3.13;;;17.70;99.90;;;;;;5054397;28;20242;-32
2023/07/30 04:18:38;;;;;;;4.68;2.42;;;17.70;99.90;;;;;;5054823;28;20205;-33
2023/07/30 04:21:04;;;;;;;4.25;3.13;;;17.70;99.90;;;;;;5071398;28;20177;-33
2023/07/30 04:23:30;;;;;;;3.40;2.90;;;17.70;99.90;;;;;;5054488;28;20214;-32
2023/07/30 04:25:56;;;;;;;4.63;4.22;;;17.70;99.90;;;;;;5047442;28;20185;-32
2023/07/30 04:28:22;;;;;;;4.20;3.80;;;17.70;99.90;;;;;;5055728;28;20260;-33
2023/07/30 04:30:47;;;;;;;4.13;2.90;;;17.70;99.90;;;;;;5071549;28;20185;-33
2023/07/30 04:33:17;;;;;;;3.22;2.92;;;17.70;99.90;;;;;;5053769;28;20181;-33
2023/07/30 04:35:43;;;;;;;4.22;2.80;;;17.70;99.90;;;;;;5052546;28;20208;-33
2023/07/30 04:38:08;;;;;;;3.55;2.80;;;17.70;99.90;;;;;;5052669;28;20181;-33
2023/07/30 04:40:34;;;;;;;5.47;2.83;;;17.80;99.90;;;;;;5052663;28;20208;-33
2023/07/30 04:43:00;;;;;;;5.13;2.80;;;17.80;99.90;;;;;;5054205;28;20216;-32
2023/07/30 04:45:27;;;;;;;2.80;2.60;;;17.80;99.90;;;;;;5049487;28;20200;-33
2023/07/30 04:47:53;;;;;;;3.28;2.97;;;17.80;99.90;;;;;;5071637;28;20173;-33
2023/07/30 04:50:19;;;;;;;3.30;3.00;;;17.80;99.90;;;;;;5070326;28;20201;-33
2023/07/30 04:52:45;;;;;;;5.22;3.13;;;17.80;99.90;;;;;;5053512;28;20193;-32
2023/07/30 04:55:11;;;;;;;3.30;3.00;;;17.80;99.90;;;;;;5044221;28;21219;-32
2023/07/30 04:57:37;;;;;;;4.07;3.10;;;17.80;99.90;;;;;;5041226;28;20193;-33
2023/07/30 05:00:03;;;;;;;2.88;2.55;;;17.80;99.90;;;;;;5040520;28;20206;-32
2023/07/30 05:02:30;;;;;;;3.97;2.88;;;17.80;99.90;;;;;;5047200;28;20205;-32
2023/07/30 05:04:55;;;;;;;3.53;2.83;;;17.80;99.90;;;;;;5053643;28;20181;-32
2023/07/30 05:07:21;;;;;;;3.92;3.53;;;17.80;99.90;;;;;;5053973;28;20193;-32
2023/07/30 05:09:47;;;;;;;2.92;2.72;;;17.90;99.90;;;;;;5053891;28;20202;-32
2023/07/30 05:12:13;;;;;;;3.75;2.60;;;17.90;99.90;;;;;;5053711;28;20182;-32
2023/07/30 05:14:38;;;;;;;3.88;2.92;;;17.90;99.90;;;;;;5070466;28;20185;-33
2023/07/30 05:17:05;;;;;;;3.47;2.80;;;18.00;99.90;;;;;;5070563;28;20184;-32
2023/07/30 05:19:33;;;;;;;4.53;3.00;;;18.00;99.90;;;;;;5053552;28;20254;-32
2023/07/30 05:22:01;;;;;;;3.72;2.88;;;18.10;99.90;;;;;;5070008;28;20189;-32
2023/07/30 05:24:27;;;;;;;2.97;2.78;;;18.20;99.90;;;;;;5067278;28;20714;-33
2023/07/30 05:26:53;;;;;;;5.40;2.90;;;18.30;99.90;;;;;;5048147;28;20185;-33
2023/07/30 05:29:19;;;;;;;3.95;2.90;;;18.30;99.90;;;;;;5050315;28;20190;-32
2023/07/30 05:31:45;;;;;;;2.92;2.67;;;18.40;99.90;;;;;;5050265;28;20185;-33
2023/07/30 05:34:10;;;;;;;3.03;2.75;;;18.40;99.90;;;;;;5052024;28;20181;-32
2023/07/30 05:36:36;;;;;;;4.15;2.70;;;18.50;99.90;;;;;;5070271;28;20185;-32
2023/07/30 05:39:02;;;;;;;3.10;2.80;;;18.50;99.90;;;;;;5069913;28;20239;-32
2023/07/30 05:41:28;;;;;;;2.83;2.55;;;18.60;99.90;;;;;;5070196;28;20208;-33
2023/07/30 05:43:54;;;;;;;2.72;2.53;;;18.50;99.90;;;;;;5069894;28;20205;-32
2023/07/30 05:46:20;;;;;;;3.63;3.00;;;18.50;99.90;;;;;;5051859;28;20189;-32
2023/07/30 05:48:46;;;;;;;3.00;2.70;;;18.60;99.90;;;;;;5052873;28;20197;-32
2023/07/30 05:51:12;;;;;;;3.40;3.10;;;18.50;99.90;;;;;;5065078;28;20274;-33
2023/07/30 05:53:38;;;;;;;2.75;2.55;;;18.60;99.90;;;;;;5050427;28;20232;-32
2023/07/30 05:56:04;;;;;;;2.67;2.47;;;18.60;99.90;;;;;;5048945;28;20197;-32
2023/07/30 05:58:31;;;;;;;3.25;2.80;;;18.60;99.90;;;;;;5032629;28;20188;-33
2023/07/30 06:00:57;;;;;;;3.05;2.75;;;18.60;99.90;;;;;;5034986;28;20192;-32
2023/07/30 06:03:23;;;;;;;3.63;2.70;;;18.70;99.90;;;;;;5050172;28;20247;-36
2023/07/30 06:05:49;;;;;;;3.30;2.80;;;18.70;99.90;;;;;;5039986;28;20182;-33
2023/07/30 06:08:15;;;;;;;5.22;2.60;;;18.60;99.90;;;;;;5051895;28;20174;-33
2023/07/30 06:10:42;;;;;;;3.28;2.45;;;18.70;99.90;;;;;;5055180;28;20190;-32
2023/07/30 06:13:08;;;;;;;3.75;3.00;;;18.70;99.90;;;;;;5041171;28;20190;-33
2023/07/30 06:15:34;;;;;;;4.07;2.28;;;18.80;99.90;;;;;;5043729;28;20197;-33
2023/07/30 06:18:03;;;;;;;3.42;2.33;;;18.80;99.90;;;;;;5055679;28;20185;-33
2023/07/30 06:20:30;;;;;;;3.70;2.80;;;18.90;99.90;;;;;;5056675;28;20205;-33
2023/07/30 06:22:56;;;;;;;3.65;2.47;;;18.90;99.90;;;;;;5056610;28;20281;-33
2023/07/30 06:25:21;;;;;;;3.97;2.65;;;18.90;99.90;;;;;;5046749;28;20250;-33
2023/07/30 06:27:47;;;;;;;3.10;2.63;;;18.90;99.90;;;;;;5051811;28;20185;-32
2023/07/30 06:30:13;;;;;;;2.88;2.50;;;18.90;99.90;;;;;;5073190;28;20209;-33
2023/07/30 06:32:39;;;;;;;3.20;2.90;;;19.00;99.90;;;;;;5056854;28;20189;-33
2023/07/30 06:35:05;;;;;;;4.18;2.70;;;19.10;99.90;;;;;;5056550;28;20279;-33
2023/07/30 06:37:31;;;;;;;3.20;2.92;;;19.30;99.90;;;;;;5056811;28;20184;-33
2023/07/30 06:39:57;;;;;;;2.83;2.55;;;19.40;99.90;;;;;;5056442;28;20256;-33
2023/07/30 06:42:22;;;;;;;2.72;2.47;;;19.50;99.90;;;;;;5056503;28;20185;-33
2023/07/30 06:44:48;;;;;;;4.00;2.50;;;19.60;99.90;;;;;;5068239;28;20251;-32
2023/07/30 06:47:14;;;;;;;4.47;2.28;;;19.70;99.90;;;;;;5047241;28;20184;-33
2023/07/30 06:49:40;;;;;;;4.72;2.22;;;19.70;99.90;;;;;;5053217;28;20206;-33
2023/07/30 06:52:07;;;;;;;2.30;2.10;;;19.60;99.90;;;;;;5054152;28;20208;-32
2023/07/30 06:54:33;;;;;;;2.10;1.92;;;19.70;99.90;;;;;;5054285;28;20212;-32
2023/07/30 06:56:59;;;;;;;3.88;2.00;;;19.60;99.90;;;;;;5068381;28;20201;-33
2023/07/30 06:59:25;;;;;;;2.05;1.95;;;19.60;99.90;;;;;;5053979;28;20200;-33
2023/07/30 07:01:52;;;;;;;2.45;1.70;;;19.60;99.90;;;;;;5054592;28;20208;-33
2023/07/30 07:04:19;;;;;;;2.50;2.20;;;19.60;99.90;;;;;;5063780;28;20209;-32
2023/07/30 07:06:44;;;;;;;1.90;1.80;;;19.60;99.90;;;;;;5053745;28;20250;-32
2023/07/30 07:09:10;;;;;;;2.90;1.85;;;19.50;99.90;;;;;;5039167;28;20205;-33
2023/07/30 07:11:36;;;;;;;2.85;2.03;;;19.50;99.90;;;;;;5059562;28;20270;-32
2023/07/30 07:14:02;;;;;;;1.92;1.65;;;19.40;99.90;;;;;;5052712;28;20187;-33
2023/07/30 07:16:28;;;;;;;2.38;1.88;;;19.40;99.90;;;;;;5036301;28;20239;-33
2023/07/30 07:18:54;;;;;;;2.20;2.00;;;19.50;99.90;;;;;;5039095;28;20194;-33
2023/07/30 07:21:20;;;;;;;2.38;1.70;;;19.40;99.90;;;;;;5035716;28;20277;-32
2023/07/30 07:23:46;;;;;;;2.53;2.00;;;19.40;99.90;;;;;;5041670;28;20213;-33
2023/07/30 07:26:12;;;;;;;3.50;1.73;;;19.40;99.90;;;;;;5038586;28;20208;-32
2023/07/30 07:28:39;;;;;;;3.97;1.95;;;19.50;99.90;;;;;;5043623;28;20209;-33
2023/07/30 07:31:04;;;;;;;2.33;1.77;;;19.50;99.90;;;;;;5040639;28;20242;-32
2023/07/30 07:33:30;;;;;;;2.15;1.73;;;19.50;99.90;;;;;;5051765;28;20225;-33
2023/07/30 07:36:04;;;;;;;2.05;1.88;;;19.50;99.90;;;;;;5050705;28;20228;-32
2023/07/30 07:38:30;;;;;;;3.03;1.90;;;19.50;99.90;;;;;;5060927;28;20657;-33
2023/07/30 07:40:56;;;;;;;1.70;1.60;;;19.50;99.90;;;;;;5039095;28;20178;-32
2023/07/30 07:43:22;;;;;;;2.03;1.60;;;19.50;99.90;;;;;;5038843;28;20676;-32
2023/07/30 07:45:48;;;;;;;1.70;1.50;;;19.50;99.90;;;;;;5037158;28;20238;-32
2023/07/30 07:48:13;;;;;;;1.67;1.55;;;19.40;99.90;;;;;;5052844;28;20182;-33
2023/07/30 07:50:39;;;;;;;2.63;1.65;;;19.40;99.90;;;;;;5051974;28;20205;-32
2023/07/30 07:53:07;;;;;;;1.75;1.65;;;19.40;99.90;;;;;;5051069;28;20189;-32
2023/07/30 07:55:33;;;;;;;1.80;1.70;;;19.50;99.90;;;;;;5035018;28;20254;-34
2023/07/30 07:57:59;;;;;;;2.10;1.58;;;19.60;99.90;;;;;;5048504;28;20177;-32
2023/07/30 08:00:25;;;;;;;1.60;1.50;;;19.70;99.90;;;;;;5037104;28;20348;-33
2023/07/30 08:02:50;;;;;;;1.95;1.77;;;19.80;99.90;;;;;;5055662;28;20212;-33
2023/07/30 08:05:17;;;;;;;1.70;1.60;;;19.90;99.90;;;;;;5051671;28;20181;-33
2023/07/30 08:07:48;;;;;;;1.75;1.63;;;20.10;99.90;;;;;;5051995;28;20174;-33
2023/07/30 08:10:13;;;;;;;1.70;1.27;;;20.30;99.90;;;;;;5036735;28;20201;-33
2023/07/30 08:12:39;;;;;;;2.05;1.35;;;20.40;99.90;;;;;;5051703;28;20535;-33
2023/07/30 08:15:06;;;;;;;3.08;1.60;;;20.60;99.90;;;;;;5034896;28;20197;-33
2023/07/30 08:17:32;;;;;;;2.65;1.50;;;20.80;99.90;;;;;;5052400;28;20177;-33
2023/07/30 08:19:58;;;;;;;1.30;1.20;;;20.90;99.90;;;;;;5035728;28;20204;-33
2023/07/30 08:22:24;;;;;;;1.25;1.20;;;20.90;99.90;;;;;;5051185;28;20181;-32
2023/07/30 08:24:50;;;;;;;1.60;1.50;;;20.90;99.90;;;;;;5051633;28;20184;-33
2023/07/30 08:27:16;;;;;;;2.13;1.58;;;20.90;99.90;;;;;;5033235;28;20265;-33
2023/07/30 08:29:42;;;;;;;1.40;1.30;;;21.00;99.90;;;;;;5035808;28;20190;-33
2023/07/30 08:32:08;;;;;;;1.50;1.40;;;21.10;99.90;;;;;;5035712;28;20170;-32
2023/07/30 08:34:34;;;;;;;1.63;1.52;;;21.10;99.90;;;;;;5050558;28;20281;-32
2023/07/30 08:37:00;;;;;;;1.55;1.45;;;21.20;99.90;;;;;;5051204;28;20178;-33
2023/07/30 08:39:26;;;;;;;2.92;1.92;;;21.20;99.90;;;;;;5035464;28;20208;-32
2023/07/30 08:41:52;;;;;;;1.40;1.30;;;21.30;99.90;;;;;;5051013;28;20272;-33
2023/07/30 08:44:18;;;;;;;2.65;1.65;;;21.40;99.90;;;;;;5050657;28;20297;-32
2023/07/30 08:46:44;;;;;;;2.67;1.52;;;21.40;99.90;;;;;;5039791;28;20176;-33
2023/07/30 08:49:09;;;;;;;2.38;1.35;;;21.50;99.90;;;;;;5035388;28;20194;-33
2023/07/30 08:51:39;;;;;;;1.95;1.60;;;21.60;99.90;;;;;;5039738;28;20181;-33
2023/07/30 08:54:06;;;;;;;2.05;1.40;;;21.70;99.90;;;;;;5051326;28;20269;-33
2023/07/30 08:56:32;;;;;;;1.60;1.50;;;21.70;99.90;;;;;;5033652;28;20206;-33
2023/07/30 08:59:01;;;;;;;2.05;1.70;;;21.80;99.90;;;;;;5047617;28;20233;-33
2023/07/30 09:01:31;;;;;;;1.60;1.50;;;21.80;99.90;;;;;;5050959;28;20197;-33
2023/07/30 09:04:00;;;;;;;1.70;1.60;;;21.80;99.90;;;;;;5051912;28;20240;-32
2023/07/30 09:06:26;;;;;;;2.05;1.85;;;21.80;99.90;;;;;;5049762;28;20184;-32
2023/07/30 09:08:52;;;;;;;1.80;1.70;;;21.80;99.90;;;;;;5047555;28;20197;-32
2023/07/30 09:11:20;;;;;;;2.17;1.60;;;21.60;99.90;;;;;;5070247;28;20272;-32
2023/07/30 09:13:46;;;;;;;2.53;1.88;;;21.40;99.90;;;;;;5053634;28;20177;-32
2023/07/30 09:16:14;;;;;;;2.38;1.65;;;21.30;99.90;;;;;;5070395;28;20300;-33
2023/07/30 09:18:45;;;;;;;2.13;1.88;;;21.20;99.90;;;;;;5043647;28;20285;-33
2023/07/30 09:21:12;;;;;;;1.73;1.63;;;21.00;99.90;;;;;;5051099;28;20197;-33
2023/07/30 09:23:46;;;;;;;2.67;1.85;;;21.00;99.90;;;;;;5070032;28;20213;-34
2023/07/30 09:26:13;;;;;;;2.75;1.70;;;20.80;99.90;;;;;;5039606;28;20171;-32
2023/07/30 09:28:42;;;;;;;2.80;1.52;;;20.60;99.90;;;;;;5051825;28;20197;-32
2023/07/30 09:31:09;;;;;;;3.65;1.63;;;20.50;99.90;;;;;;5050535;28;20196;-32
2023/07/30 09:33:40;;;;;;;3.05;1.77;;;20.30;99.90;;;;;;5050205;28;20197;-32
2023/07/30 09:36:07;;;;;;;2.35;2.15;;;20.10;99.90;;;;;;5050199;28;20181;-33
2023/07/30 09:38:39;;;;;;;3.00;1.70;;;20.10;99.90;;;;;;5055286;28;20242;-32
2023/07/30 09:41:05;;;;;;;2.25;1.80;;;19.90;99.90;;;;;;5061556;28;20178;-32
2023/07/30 09:43:35;;;;;;;2.85;2.10;;;19.90;99.90;;;;;;5056791;28;20208;-33
2023/07/30 09:46:02;;;;;;;2.15;1.90;;;20.00;99.90;;;;;;5056331;28;20184;-33
2023/07/30 09:48:33;;;;;;;2.30;1.90;;;20.00;99.90;;;;;;5048195;28;20268;-32
2023/07/30 09:51:05;;;;;;;2.53;1.77;;;20.20;99.90;;;;;;5057234;28;20178;-32
2023/07/30 09:53:34;;;;;;;2.30;1.42;;;20.40;99.90;;;;;;5056210;28;20185;-33
2023/07/30 09:56:05;;;;;;;2.10;1.90;;;20.50;99.90;;;;;;5057559;28;20178;-33
2023/07/30 09:58:31;;;;;;;2.10;1.85;;;20.50;99.90;;;;;;5057955;28;20189;-33
2023/07/30 10:01:00;;;;;;;2.10;1.90;;;20.60;99.90;;;;;;5058194;28;20239;-32
2023/07/30 10:03:27;;;;;;;2.05;1.70;;;20.60;99.90;;;;;;5059844;28;20216;-33
2023/07/30 10:06:00;;;;;;;1.80;1.70;;;20.60;99.90;;;;;;5044117;28;20231;-33
2023/07/30 10:08:30;;;;;;;4.10;1.75;;;20.70;99.90;;;;;;5057476;28;20181;-33
2023/07/30 10:10:57;;;;;;;2.40;1.95;;;20.70;99.90;;;;;;5056911;28;20170;-32
2023/07/30 10:13:24;;;;;;;4.97;1.95;;;20.60;99.90;;;;;;5057267;28;20185;-32
2023/07/30 10:15:51;;;;;;;1.80;1.70;;;20.60;99.90;;;;;;5057312;28;20190;-32
2023/07/30 10:18:17;;;;;;;2.38;2.03;;;20.70;99.90;;;;;;5058291;28;20224;-32
2023/07/30 10:20:54;;;;;;;1.95;1.83;;;20.80;99.90;;;;;;5057379;28;20278;-31
2023/07/30 10:23:19;;;;;;;1.98;1.77;;;20.80;99.90;;;;;;5060617;28;20266;-32
2023/07/30 10:25:48;;;;;;;2.00;1.70;;;20.90;99.90;;;;;;5048035;28;20189;-32
2023/07/30 10:28:33;;;;;;;1.60;1.48;;;20.90;99.90;;;;;;5057146;28;20190;-32
2023/07/30 10:31:10;;;;;;;2.00;1.77;;;20.90;99.90;;;;;;5053878;28;20178;-32
2023/07/30 10:33:49;;;;;;;2.47;1.67;;;21.00;99.90;;;;;;5036770;28;20201;-32
2023/07/30 10:36:19;;;;;;;2.08;1.90;;;21.30;99.90;;;;;;5071381;28;20181;-32
2023/07/30 10:38:45;;;;;;;3.22;1.90;;;21.40;99.90;;;;;;5043256;28;20197;-32
2023/07/30 10:41:18;;;;;;;2.72;2.30;;;21.40;99.90;;;;;;5043448;28;20182;-32
2023/07/30 10:43:48;;;;;;;2.22;2.00;;;21.40;99.90;;;;;;5055486;28;20209;-32
2023/07/30 10:46:16;;;;;;;1.75;1.65;;;21.60;99.90;;;;;;5056655;28;20173;-33
2023/07/30 10:48:44;;;;;;;3.35;2.10;;;21.70;99.90;;;;;;5077220;28;20201;-32
2023/07/30 10:51:12;;;;;;;2.40;2.20;;;22.00;99.90;;;;;;5037394;28;20213;-32
2023/07/30 10:53:39;;;;;;;2.70;2.00;;;22.30;99.90;;;;;;5060790;28;20184;-32
2023/07/30 10:56:07;;;;;;;3.38;2.10;;;22.70;99.90;;;;;;5051740;28;20182;-32
2023/07/30 10:58:34;;;;;;;3.53;1.90;;;22.90;99.90;;;;;;5052602;28;20243;-32
2023/07/30 11:01:08;;;;;;;2.80;1.90;;;23.10;99.90;;;;;;5033491;28;20174;-33
2023/07/30 11:03:34;;;;;;;2.20;2.00;;;23.40;99.90;;;;;;5035538;28;20214;-33
2023/07/30 11:06:02;;;;;;;3.45;2.00;;;23.60;99.90;;;;;;5051340;28;20185;-32
2023/07/30 11:08:37;;;;;;;2.72;1.92;;;23.80;99.90;;;;;;5052358;28;20190;-33
2023/07/30 11:11:04;;;;;;;2.63;2.17;;;23.70;99.90;;;;;;5033902;28;20185;-32
2023/07/30 11:13:41;;;;;;;4.82;1.83;;;23.50;99.90;;;;;;5052320;28;20506;-33
2023/07/30 11:16:09;;;;;;;4.70;2.22;;;23.50;99.90;;;;;;5061612;28;20185;-33
2023/07/30 11:18:38;;;;;;;2.15;1.80;;;23.30;99.90;;;;;;5035173;28;20217;-33
2023/07/30 11:21:12;;;;;;;3.17;2.08;;;23.20;99.90;;;;;;5052329;28;20208;-32
2023/07/30 11:23:41;;;;;;;4.43;2.05;;;23.00;99.90;;;;;;5054444;28;20270;-33
2023/07/30 11:26:09;;;;;;;2.30;1.80;;;23.10;99.90;;;;;;5060006;28;20204;-33
2023/07/30 11:28:37;;;;;;;2.20;2.00;;;23.10;99.90;;;;;;5061658;28;20181;-33
2023/07/30 11:31:09;;;;;;;2.47;1.90;;;23.10;99.90;;;;;;5050726;28;20173;-32
2023/07/30 11:33:38;;;;;;;2.83;1.90;;;23.30;99.90;;;;;;5055724;28;20185;-32
2023/07/30 11:36:04;;;;;;;3.92;2.22;;;23.30;99.90;;;;;;5051922;28;20178;-32
2023/07/30 11:38:32;;;;;;;2.42;1.98;;;23.30;99.90;;;;;;5056001;28;20195;-33
2023/07/30 11:40:58;;;;;;;3.70;1.90;;;23.20;99.90;;;;;;5074187;28;20173;-33
2023/07/30 11:43:24;;;;;;;4.75;1.92;;;23.10;99.90;;;;;;5055660;28;20266;-33
2023/07/30 11:46:10;;;;;;;3.55;2.10;;;23.10;99.90;;;;;;5047669;28;20204;-32
2023/07/30 11:48:36;;;;;;;3.38;2.13;;;23.00;99.90;;;;;;5042495;28;20186;-32
2023/07/30 11:51:02;;;;;;;2.58;2.00;;;22.90;99.90;;;;;;5058076;28;20312;-33
2023/07/30 11:53:49;;;;;;;2.58;2.00;;;22.90;99.90;;;;;;5044888;28;20181;-32
2023/07/30 11:56:21;;;;;;;2.10;1.90;;;22.90;99.90;;;;;;5055492;28;20181;-33
2023/07/30 11:58:47;;;;;;;2.20;2.00;;;23.00;99.90;;;;;;5028125;28;20205;-32
2023/07/30 12:01:15;;;;;;;2.10;1.90;;;23.10;99.90;;;;;;5035163;28;20186;-33
2023/07/30 12:03:41;;;;;;;2.13;1.90;;;23.40;99.90;;;;;;5052600;28;20206;-33
2023/07/30 12:06:08;;;;;;;2.55;1.80;;;23.60;99.90;;;;;;5049858;28;20184;-33
2023/07/30 12:08:35;;;;;;;3.20;1.95;;;23.70;99.90;;;;;;5055363;28;20189;-32
2023/07/30 12:11:09;;;;;;;2.17;1.98;;;23.60;99.90;;;;;;5072085;28;20652;-33
2023/07/30 12:13:45;;;;;;;1.60;1.50;;;24.00;99.90;;;;;;5055121;28;20196;-32
2023/07/30 12:16:12;;;;;;;1.75;1.65;;;24.20;99.90;;;;;;5044984;28;20194;-33
2023/07/30 12:18:39;;;;;;;2.00;1.80;;;24.20;99.90;;;;;;5069714;28;20209;-33
2023/07/30 12:21:07;;;;;;;3.30;1.70;;;24.30;99.90;;;;;;5056135;28;20263;-32
2023/07/30 12:23:34;;;;;;;2.72;1.90;;;24.30;99.90;;;;;;5061745;28;20209;-33
2023/07/30 12:26:04;;;;;;;4.07;1.88;;;24.30;99.90;;;;;;5071154;28;20181;-32
2023/07/30 12:28:36;;;;;;;2.20;2.00;;;24.50;99.90;;;;;;5070008;28;20173;-33
2023/07/30 12:31:02;;;;;;;2.28;1.80;;;24.70;99.90;;;;;;5052355;28;20205;-33
2023/07/30 12:33:28;;;;;;;2.42;1.95;;;24.90;99.90;;;;;;5052573;28;20209;-34
2023/07/30 12:35:53;;;;;;;1.77;1.60;;;24.90;99.90;;;;;;5053615;28;20174;-32
2023/07/30 12:38:19;;;;;;;2.67;1.75;;;24.80;99.90;;;;;;5070356;28;20181;-33
2023/07/30 12:40:45;;;;;;;2.92;1.92;;;24.60;99.90;;;;;;5047020;28;20266;-32
2023/07/30 12:43:11;;;;;;;2.85;2.05;;;24.40;99.90;;;;;;5060099;28;20235;-35
2023/07/30 12:45:38;;;;;;;2.20;1.80;;;24.20;99.90;;;;;;5053465;28;20181;-34
2023/07/30 12:48:04;;;;;;;2.78;2.20;;;24.00;99.90;;;;;;5057696;28;20185;-33